createdAt,value
2018-10-03T00:01:29.289Z,11.72
2018-10-03T00:04:02.910Z,11.69
2018-10-03T00:06:36.701Z,11.76
2018-10-03T00:09:11.030Z,11.81
2018-10-03T00:11:44.695Z,11.80
2018-10-03T00:14:18.356Z,11.79
2018-10-03T00:16:52.146Z,11.76
2018-10-03T00:19:25.761Z,11.79
2018-10-03T00:21:59.399Z,11.80
2018-10-03T00:24:33.002Z,11.82
2018-10-03T00:27:06.683Z,11.83
2018-10-03T00:29:40.255Z,11.87
2018-10-03T00:32:13.853Z,11.82
2018-10-03T00:34:47.887Z,11.83
2018-10-03T00:37:21.555Z,11.66
2018-10-03T00:39:55.211Z,11.67
2018-10-03T00:42:28.843Z,11.73
2018-10-03T00:45:03.029Z,11.65
2018-10-03T00:47:36.769Z,11.61
2018-10-03T00:50:10.358Z,11.60
2018-10-03T00:52:43.929Z,11.54
2018-10-03T00:55:18.133Z,11.51
2018-10-03T00:57:51.753Z,11.52
2018-10-03T01:00:25.411Z,11.45
2018-10-03T01:02:59.137Z,11.53
2018-10-03T01:05:32.751Z,11.45
2018-10-03T01:08:06.459Z,11.49
2018-10-03T01:10:40.086Z,11.42
2018-10-03T01:13:13.875Z,11.56
2018-10-03T01:15:47.514Z,11.49
2018-10-03T01:18:21.149Z,11.38
2018-10-03T01:20:54.870Z,11.46
2018-10-03T01:23:28.512Z,11.43
2018-10-03T01:26:02.367Z,11.54
2018-10-03T01:28:36.064Z,11.50
2018-10-03T01:31:09.816Z,11.49
2018-10-03T01:33:43.638Z,11.46
2018-10-03T01:36:17.392Z,11.36
2018-10-03T01:38:51.000Z,11.37
2018-10-03T01:41:24.765Z,11.29
2018-10-03T01:43:58.953Z,11.30
2018-10-03T01:46:32.609Z,11.34
2018-10-03T01:49:06.256Z,11.30
2018-10-03T01:51:39.998Z,11.25
2018-10-03T01:54:13.616Z,11.28
2018-10-03T01:56:47.238Z,11.32
2018-10-03T01:59:20.858Z,11.34
2018-10-03T02:01:54.455Z,11.40
2018-10-03T02:04:28.122Z,11.43
2018-10-03T02:07:01.870Z,11.43
2018-10-03T02:09:35.435Z,11.43
2018-10-03T02:12:09.060Z,11.48
2018-10-03T02:14:42.767Z,11.50
2018-10-03T02:17:16.475Z,11.45
2018-10-03T02:19:50.112Z,11.43
2018-10-03T02:22:24.062Z,11.56
2018-10-03T02:24:57.683Z,11.60
2018-10-03T02:27:31.329Z,11.62
2018-10-03T02:30:06.174Z,11.57
2018-10-03T02:32:39.879Z,11.61
2018-10-03T02:35:13.505Z,11.60
2018-10-03T02:37:47.298Z,11.63
2018-10-03T02:40:20.943Z,11.48
2018-10-03T02:42:54.619Z,11.52
2018-10-03T02:45:28.277Z,11.51
2018-10-03T02:48:01.923Z,11.45
2018-10-03T02:50:35.829Z,11.48
2018-10-03T02:53:09.909Z,11.41
2018-10-03T02:55:43.543Z,11.39
2018-10-03T02:58:17.173Z,11.32
2018-10-03T03:00:50.919Z,11.21
2018-10-03T03:03:24.599Z,11.21
2018-10-03T03:05:58.381Z,11.31
2018-10-03T03:08:32.080Z,11.27
2018-10-03T03:11:05.795Z,11.19
2018-10-03T03:13:39.526Z,11.13
2018-10-03T03:16:13.172Z,11.13
2018-10-03T03:18:47.024Z,11.13
2018-10-03T03:21:20.718Z,11.04
2018-10-03T03:23:54.373Z,10.94
2018-10-03T03:26:28.058Z,11.01
2018-10-03T03:29:01.680Z,10.96
2018-10-03T03:31:35.308Z,10.93
2018-10-03T03:34:08.971Z,11.02
2018-10-03T03:36:42.600Z,10.95
2018-10-03T03:39:16.294Z,11.03
2018-10-03T03:41:49.911Z,11.01
2018-10-03T03:44:23.520Z,10.99
2018-10-03T03:46:57.286Z,11.04
2018-10-03T03:49:31.014Z,11.07
2018-10-03T03:52:04.715Z,10.93
2018-10-03T03:54:38.292Z,11.09
2018-10-03T03:57:11.971Z,11.12
2018-10-03T03:59:45.593Z,11.15
2018-10-03T04:02:19.238Z,11.15
2018-10-03T04:04:52.979Z,11.26
2018-10-03T04:07:26.587Z,11.27
2018-10-03T04:10:00.310Z,11.28
2018-10-03T04:12:33.911Z,11.20
2018-10-03T04:15:07.657Z,11.33
2018-10-03T04:17:41.332Z,11.25
2018-10-03T04:20:15.084Z,11.37
2018-10-03T04:22:48.724Z,11.35
2018-10-03T04:25:22.349Z,11.40
2018-10-03T04:27:56.031Z,11.43
2018-10-03T04:30:29.645Z,11.44
2018-10-03T04:33:03.306Z,11.42
2018-10-03T04:35:36.982Z,11.48
2018-10-03T04:38:10.627Z,11.50
2018-10-03T04:40:44.289Z,11.49
2018-10-03T04:43:18.150Z,11.52
2018-10-03T04:45:51.833Z,11.54
2018-10-03T04:48:25.758Z,11.61
2018-10-03T04:50:59.398Z,11.50
2018-10-03T04:53:32.996Z,11.54
2018-10-03T04:56:06.710Z,11.59
2018-10-03T04:58:40.575Z,11.60
2018-10-03T05:01:14.196Z,11.50
2018-10-03T05:03:47.868Z,11.57
2018-10-03T05:06:21.511Z,11.54
2018-10-03T05:08:55.143Z,11.61
2018-10-03T05:11:28.810Z,11.65
2018-10-03T05:14:02.478Z,11.63
2018-10-03T05:16:36.160Z,11.63
2018-10-03T05:19:09.831Z,11.59
2018-10-03T05:21:43.442Z,11.57
2018-10-03T05:24:17.316Z,11.66
2018-10-03T05:26:50.961Z,11.67
2018-10-03T05:29:24.745Z,11.77
2018-10-03T05:31:58.396Z,11.71
2018-10-03T05:34:32.228Z,11.78
2018-10-03T05:37:05.966Z,11.80
2018-10-03T05:39:39.644Z,11.74
2018-10-03T05:42:13.349Z,11.69
2018-10-03T05:44:46.982Z,11.65
2018-10-03T05:47:20.583Z,11.57
2018-10-03T05:49:54.232Z,11.64
2018-10-03T05:52:27.833Z,11.65
2018-10-03T05:55:01.480Z,11.56
2018-10-03T05:57:35.108Z,11.65
2018-10-03T06:00:08.827Z,11.68
2018-10-03T06:02:42.531Z,11.64
2018-10-03T06:05:16.145Z,11.53
2018-10-03T06:07:49.767Z,11.55
2018-10-03T06:10:23.396Z,11.49
2018-10-03T06:12:57.088Z,11.52
2018-10-03T06:15:30.753Z,11.53
2018-10-03T06:18:04.345Z,11.55
2018-10-03T06:20:38.141Z,11.58
2018-10-03T06:23:11.725Z,11.57
2018-10-03T06:25:45.307Z,11.59
2018-10-03T06:28:18.997Z,11.61
2018-10-03T06:30:52.625Z,11.51
2018-10-03T06:33:26.342Z,11.66
2018-10-03T06:35:59.947Z,11.67
2018-10-03T06:38:33.537Z,11.68
2018-10-03T06:41:07.223Z,11.58
2018-10-03T06:43:40.835Z,11.56
2018-10-03T06:46:14.470Z,11.47
2018-10-03T06:48:48.143Z,11.54
2018-10-03T06:51:21.756Z,11.46
2018-10-03T06:53:55.361Z,11.50
2018-10-03T06:56:29.238Z,11.58
2018-10-03T06:59:02.963Z,11.61
2018-10-03T07:01:36.632Z,11.68
2018-10-03T07:04:10.351Z,11.74
2018-10-03T07:06:43.968Z,11.61
2018-10-03T07:09:17.561Z,11.63
2018-10-03T07:11:51.181Z,11.56
2018-10-03T07:14:24.879Z,11.69
2018-10-03T07:16:58.600Z,11.79
2018-10-03T07:19:32.248Z,11.76
2018-10-03T07:22:05.934Z,11.79
2018-10-03T07:24:39.596Z,11.92
2018-10-03T07:27:13.322Z,11.92
2018-10-03T07:29:46.888Z,12.03
2018-10-03T07:32:20.541Z,12.03
2018-10-03T07:34:54.150Z,11.99
2018-10-03T07:37:27.837Z,12.01
2018-10-03T07:40:01.461Z,12.15
2018-10-03T07:42:35.230Z,12.17
2018-10-03T07:45:08.847Z,12.20
2018-10-03T07:47:42.457Z,12.28
2018-10-03T07:50:16.226Z,12.33
2018-10-03T07:52:49.938Z,12.32
2018-10-03T07:55:23.768Z,12.37
2018-10-03T07:57:57.421Z,12.47
2018-10-03T08:00:31.706Z,12.53
2018-10-03T08:03:11.389Z,12.55
2018-10-03T08:05:45.082Z,12.69
2018-10-03T08:08:18.764Z,12.75
2018-10-03T08:10:52.384Z,12.69
2018-10-03T08:13:26.059Z,12.85
2018-10-03T08:15:59.755Z,12.95
2018-10-03T08:18:33.494Z,12.87
2018-10-03T08:21:07.210Z,12.88
2018-10-03T08:23:40.844Z,12.88
2018-10-03T08:26:14.492Z,12.96
2018-10-03T08:28:48.181Z,12.90
2018-10-03T08:31:21.880Z,12.80
2018-10-03T08:33:56.907Z,12.88
2018-10-03T08:36:31.422Z,12.95
2018-10-03T08:39:09.152Z,12.85
2018-10-03T08:41:43.895Z,12.89
2018-10-03T08:44:18.267Z,12.95
2018-10-03T08:46:52.074Z,12.88
2018-10-03T08:49:26.725Z,12.88
2018-10-03T08:52:00.683Z,12.93
2018-10-03T08:54:34.379Z,12.90
2018-10-03T08:57:09.270Z,12.96
2018-10-03T08:59:42.888Z,13.07
2018-10-03T09:02:16.504Z,13.24
2018-10-03T09:04:51.268Z,13.41
2018-10-03T09:07:27.407Z,13.43
2018-10-03T09:10:01.212Z,13.44
2018-10-03T09:12:34.821Z,13.63
2018-10-03T09:15:08.491Z,13.71
2018-10-03T09:17:42.125Z,13.85
2018-10-03T09:20:15.726Z,14.04
2018-10-03T09:22:49.395Z,14.21
2018-10-03T09:25:23.024Z,14.37
2018-10-03T09:27:57.035Z,14.54
2018-10-03T09:30:30.875Z,14.65
2018-10-03T09:33:04.489Z,14.70
2018-10-03T09:35:38.131Z,14.83
2018-10-03T09:38:11.750Z,14.95
2018-10-03T09:40:45.333Z,15.11
2018-10-03T09:43:18.978Z,14.99
2018-10-03T09:45:52.596Z,15.00
2018-10-03T09:48:26.223Z,15.06
2018-10-03T09:50:59.845Z,14.87
2018-10-03T09:53:33.486Z,14.90
2018-10-03T09:56:07.244Z,14.96
2018-10-03T09:58:40.965Z,14.75
2018-10-03T10:01:15.371Z,14.59
2018-10-03T10:03:48.972Z,14.46
2018-10-03T10:06:22.577Z,14.41
2018-10-03T10:08:56.284Z,14.27
2018-10-03T10:11:29.923Z,14.25
2018-10-03T10:14:03.589Z,14.44
2018-10-03T10:16:37.181Z,14.65
2018-10-03T10:19:10.817Z,14.93
2018-10-03T10:21:44.428Z,15.08
2018-10-03T10:24:18.098Z,15.27
2018-10-03T10:26:51.680Z,15.44
2018-10-03T10:29:25.281Z,15.30
2018-10-03T10:31:58.919Z,15.45
2018-10-03T10:34:32.724Z,15.48
2018-10-03T10:37:06.417Z,15.66
2018-10-03T10:39:40.067Z,15.64
2018-10-03T10:42:13.689Z,15.72
2018-10-03T10:44:47.309Z,15.54
2018-10-03T10:48:23.831Z,15.38
2018-10-03T10:50:57.460Z,15.27
2018-10-03T10:53:31.053Z,15.14
2018-10-03T10:56:04.639Z,14.86
2018-10-03T10:58:38.268Z,14.80
2018-10-03T11:01:11.901Z,14.70
2018-10-03T11:03:45.583Z,14.64
2018-10-03T11:06:19.204Z,14.82
2018-10-03T11:08:52.794Z,14.87
2018-10-03T11:11:26.391Z,15.04
2018-10-03T11:14:00.127Z,15.20
2018-10-03T11:16:33.880Z,15.29
2018-10-03T11:19:07.488Z,15.36
2018-10-03T11:21:41.089Z,15.44
2018-10-03T11:24:14.837Z,15.58
2018-10-03T11:26:48.384Z,15.85
2018-10-03T11:29:22.013Z,15.95
2018-10-03T11:31:56.494Z,16.19
2018-10-03T11:34:30.075Z,16.30
2018-10-03T11:37:03.670Z,16.16
2018-10-03T11:39:37.294Z,15.92
2018-10-03T11:42:10.889Z,15.79
2018-10-03T11:44:44.668Z,15.46
2018-10-03T11:47:18.274Z,15.21
2018-10-03T11:49:51.919Z,14.91
2018-10-03T11:52:25.525Z,14.82
2018-10-03T11:54:59.129Z,14.84
2018-10-03T11:57:32.780Z,14.83
2018-10-03T12:00:06.449Z,14.78
2018-10-03T12:02:40.117Z,14.86
2018-10-03T12:05:13.809Z,14.82
2018-10-03T12:07:47.386Z,15.09
2018-10-03T12:10:21.093Z,15.21
2018-10-03T12:12:54.915Z,15.38
2018-10-03T12:15:30.026Z,15.35
2018-10-03T12:18:03.700Z,15.41
2018-10-03T12:20:37.372Z,15.35
2018-10-03T12:23:11.799Z,15.44
2018-10-03T12:25:46.015Z,15.48
2018-10-03T12:28:19.705Z,15.55
2018-10-03T12:30:53.362Z,15.72
2018-10-03T12:33:27.022Z,15.92
2018-10-03T12:36:00.668Z,15.95
2018-10-03T12:38:34.398Z,16.01
2018-10-03T12:41:08.068Z,16.15
2018-10-03T12:43:41.688Z,16.18
2018-10-03T12:46:15.349Z,16.10
2018-10-03T12:48:48.979Z,15.98
2018-10-03T12:51:22.604Z,16.19
2018-10-03T12:53:56.217Z,16.11
2018-10-03T12:56:29.855Z,16.04
2018-10-03T12:59:03.505Z,15.67
2018-10-03T13:01:37.158Z,15.38
2018-10-03T13:04:10.796Z,15.19
2018-10-03T13:06:44.544Z,15.12
2018-10-03T13:09:18.222Z,14.95
2018-10-03T13:11:51.841Z,15.00
2018-10-03T13:14:25.501Z,15.01
2018-10-03T13:16:59.136Z,14.89
2018-10-03T13:19:32.863Z,14.88
2018-10-03T13:22:06.529Z,14.88
2018-10-03T13:24:40.167Z,14.87
2018-10-03T13:27:13.788Z,14.83
2018-10-03T13:29:47.405Z,14.75
2018-10-03T13:32:21.013Z,14.77
2018-10-03T13:34:54.642Z,14.84
2018-10-03T13:37:28.345Z,14.90
2018-10-03T13:40:02.091Z,14.94
2018-10-03T13:42:35.761Z,14.99
2018-10-03T13:45:09.460Z,15.06
2018-10-03T13:47:43.089Z,15.11
2018-10-03T13:50:16.780Z,15.21
2018-10-03T13:52:50.434Z,15.29
2018-10-03T13:55:24.097Z,15.34
2018-10-03T13:57:57.877Z,15.43
2018-10-03T14:00:31.611Z,15.58
2018-10-03T14:03:05.313Z,15.61
2018-10-03T14:05:39.037Z,15.75
2018-10-03T14:08:12.688Z,15.87
2018-10-03T14:10:46.347Z,15.87
2018-10-03T14:13:20.029Z,15.86
2018-10-03T14:15:53.699Z,15.80
2018-10-03T14:18:27.344Z,15.63
2018-10-03T14:21:01.029Z,15.68
2018-10-03T14:23:34.687Z,15.68
2018-10-03T14:26:08.280Z,15.70
2018-10-03T14:28:42.169Z,15.78
2018-10-03T14:31:15.891Z,15.87
2018-10-03T14:33:49.512Z,15.95
2018-10-03T14:36:23.141Z,15.92
2018-10-03T14:38:56.724Z,15.88
2018-10-03T14:41:30.435Z,15.82
2018-10-03T14:44:04.061Z,15.72
2018-10-03T14:46:37.753Z,15.49
2018-10-03T14:49:11.305Z,15.49
2018-10-03T14:51:44.967Z,15.45
2018-10-03T14:54:18.538Z,15.42
2018-10-03T14:56:52.128Z,15.39
2018-10-03T14:59:25.826Z,15.39
2018-10-03T15:01:59.456Z,15.15
2018-10-03T15:04:33.033Z,15.23
2018-10-03T15:07:07.020Z,15.28
2018-10-03T15:09:40.555Z,15.27
2018-10-03T15:12:14.185Z,15.31
2018-10-03T15:14:47.790Z,15.26
2018-10-03T15:17:21.440Z,15.31
2018-10-03T15:19:55.049Z,15.29
2018-10-03T15:22:28.778Z,15.26
2018-10-03T15:25:02.477Z,15.20
2018-10-03T15:27:36.193Z,15.26
2018-10-03T15:30:09.939Z,15.20
2018-10-03T15:32:43.575Z,15.18
2018-10-03T15:35:17.191Z,15.05
2018-10-03T15:37:51.159Z,15.01
2018-10-03T15:40:24.820Z,14.97
2018-10-03T15:42:58.405Z,14.93
2018-10-03T15:45:31.976Z,14.98
2018-10-03T15:48:05.635Z,14.92
2018-10-03T15:50:39.233Z,14.96
2018-10-03T15:53:13.019Z,14.90
2018-10-03T15:55:46.720Z,14.85
2018-10-03T15:58:20.441Z,14.83
2018-10-03T16:00:54.132Z,14.75
2018-10-03T16:03:27.787Z,14.70
2018-10-03T16:06:01.434Z,14.72
2018-10-03T16:08:36.027Z,14.64
2018-10-03T16:11:09.680Z,14.65
2018-10-03T16:13:43.341Z,14.62
2018-10-03T16:16:17.088Z,14.56
2018-10-03T16:18:50.712Z,14.42
2018-10-03T16:21:24.528Z,14.30
2018-10-03T16:23:58.302Z,14.38
2018-10-03T16:26:31.944Z,14.21
2018-10-03T16:29:05.601Z,14.23
2018-10-03T16:31:39.227Z,14.21
2018-10-03T16:34:12.804Z,14.17
2018-10-03T16:36:46.499Z,14.07
2018-10-03T16:39:20.126Z,14.01
2018-10-03T16:41:53.754Z,13.96
2018-10-03T16:44:27.402Z,13.97
2018-10-03T16:47:01.039Z,13.92
2018-10-03T16:49:34.714Z,13.88
2018-10-03T16:52:08.374Z,13.80
2018-10-03T16:54:41.975Z,13.75
2018-10-03T16:57:15.616Z,13.68
2018-10-03T16:59:49.266Z,13.69
2018-10-03T17:02:28.939Z,13.67
2018-10-03T17:05:02.549Z,13.69
2018-10-03T17:07:36.261Z,13.62
2018-10-03T17:10:09.959Z,13.61
2018-10-03T17:12:43.681Z,13.62
2018-10-03T17:15:17.338Z,13.60
2018-10-03T17:17:50.984Z,13.61
2018-10-03T17:20:24.614Z,13.61
2018-10-03T17:22:58.286Z,13.63
2018-10-03T17:25:32.111Z,13.55
2018-10-03T17:28:05.731Z,13.56
2018-10-03T17:30:39.348Z,13.57
2018-10-03T17:33:13.040Z,13.52
2018-10-03T17:35:46.673Z,13.58
2018-10-03T17:38:20.347Z,13.62
2018-10-03T17:40:53.971Z,13.68
2018-10-03T17:43:27.695Z,13.76
2018-10-03T17:46:01.263Z,13.77
2018-10-03T17:48:34.892Z,13.81
2018-10-03T17:51:08.529Z,13.82
2018-10-03T17:53:42.134Z,13.87
2018-10-03T17:56:15.752Z,13.86
2018-10-03T17:58:49.401Z,13.91
2018-10-03T18:01:24.237Z,13.91
2018-10-03T18:03:57.916Z,13.92
2018-10-03T18:06:31.533Z,13.90
2018-10-03T18:09:08.004Z,13.85
2018-10-03T18:11:41.725Z,13.82
2018-10-03T18:14:15.337Z,13.79
2018-10-03T18:16:48.917Z,13.75
2018-10-03T18:19:22.634Z,13.67
2018-10-03T18:21:56.285Z,13.58
2018-10-03T18:24:29.857Z,13.46
2018-10-03T18:27:03.468Z,13.36
2018-10-03T18:29:37.142Z,13.31
2018-10-03T18:32:10.766Z,13.28
2018-10-03T18:34:44.510Z,13.24
2018-10-03T18:37:18.150Z,13.20
2018-10-03T18:39:51.790Z,13.18
2018-10-03T18:42:25.408Z,13.14
2018-10-03T18:44:59.086Z,13.09
2018-10-03T18:47:32.692Z,13.03
2018-10-03T18:50:07.117Z,12.97
2018-10-03T18:52:40.726Z,12.90
2018-10-03T18:55:14.325Z,12.83
2018-10-03T18:57:47.941Z,12.74
2018-10-03T19:00:21.583Z,12.68
2018-10-03T19:02:55.171Z,12.62
2018-10-03T19:05:28.788Z,12.57
2018-10-03T19:08:02.598Z,12.55
2018-10-03T19:10:36.231Z,12.55
2018-10-03T19:13:09.900Z,12.58
2018-10-03T19:15:43.558Z,12.58
2018-10-03T19:18:17.325Z,12.57
2018-10-03T19:20:50.917Z,12.56
2018-10-03T19:23:24.540Z,12.53
2018-10-03T19:25:58.209Z,12.49
2018-10-03T19:28:31.984Z,12.47
2018-10-03T19:31:05.617Z,12.48
2018-10-03T19:33:39.422Z,12.48
2018-10-03T19:36:12.993Z,12.43
2018-10-03T19:38:46.638Z,12.45
2018-10-03T19:41:20.274Z,12.48
2018-10-03T19:43:53.894Z,12.49
2018-10-03T19:46:27.522Z,12.52
2018-10-03T19:49:01.251Z,12.57
2018-10-03T19:51:34.880Z,12.59
2018-10-03T19:54:08.817Z,12.61
2018-10-03T19:56:42.471Z,12.59
2018-10-03T19:59:16.112Z,12.61
2018-10-03T20:01:49.766Z,12.64
2018-10-03T20:04:23.419Z,12.69
2018-10-03T20:06:57.028Z,12.71
2018-10-03T20:16:33.714Z,12.80
2018-10-03T20:19:07.343Z,12.71
2018-10-03T20:21:41.164Z,12.68
2018-10-03T20:24:14.798Z,12.69
2018-10-03T20:26:48.420Z,12.72
2018-10-03T20:29:22.120Z,12.73
2018-10-03T20:31:55.737Z,12.75
2018-10-03T20:34:29.486Z,12.72
2018-10-03T20:37:03.199Z,12.73
2018-10-03T20:39:36.891Z,12.71
2018-10-03T20:42:10.606Z,12.74
2018-10-03T20:44:44.215Z,12.71
2018-10-03T20:47:17.884Z,12.71
2018-10-03T20:49:51.509Z,12.70
2018-10-03T20:52:25.206Z,12.71
2018-10-03T20:54:58.802Z,12.71
2018-10-03T20:57:32.564Z,12.72
2018-10-03T21:00:06.275Z,12.69
2018-10-03T21:02:41.193Z,12.66
2018-10-03T21:05:14.856Z,12.61
2018-10-03T21:07:48.610Z,12.62
2018-10-03T21:10:22.782Z,12.63
2018-10-03T21:12:56.474Z,12.60
2018-10-03T21:15:30.186Z,12.63
2018-10-03T21:18:03.961Z,12.63
2018-10-03T21:20:38.737Z,12.67
2018-10-03T21:23:12.388Z,12.74
2018-10-03T21:25:46.046Z,12.75
2018-10-03T21:28:19.872Z,12.77
2018-10-03T21:30:55.150Z,12.82
2018-10-03T21:33:29.263Z,12.84
2018-10-03T21:36:03.391Z,12.86
2018-10-03T21:38:37.606Z,12.86
2018-10-03T21:41:11.795Z,12.79
2018-10-03T21:43:46.610Z,12.80
2018-10-03T21:46:20.592Z,12.80
2018-10-03T21:48:54.958Z,12.79
2018-10-03T21:51:28.584Z,12.80
2018-10-03T21:54:03.014Z,12.84
2018-10-03T21:56:36.665Z,12.88
2018-10-03T21:59:10.349Z,12.89
2018-10-03T22:01:44.037Z,12.89
2018-10-03T22:04:17.787Z,12.92
2018-10-03T22:06:51.635Z,12.91
2018-10-03T22:09:25.342Z,12.85
2018-10-03T22:11:59.709Z,12.85
2018-10-03T22:14:33.477Z,12.79
2018-10-03T22:17:13.074Z,12.79
2018-10-03T22:19:47.155Z,12.76
2018-10-03T22:22:21.105Z,12.69
2018-10-03T22:24:55.282Z,12.65
2018-10-03T22:27:29.536Z,12.57
2018-10-03T22:30:03.376Z,12.50
2018-10-03T22:32:38.353Z,12.41
2018-10-03T22:35:12.009Z,12.35
2018-10-03T22:37:45.817Z,12.30
2018-10-03T22:40:19.419Z,12.23
2018-10-03T22:42:53.956Z,12.18
2018-10-03T22:45:27.761Z,12.11
2018-10-03T22:48:01.402Z,12.05
2018-10-03T22:50:35.032Z,11.99
2018-10-03T22:53:08.837Z,11.93
2018-10-03T22:55:42.482Z,11.90
2018-10-03T22:58:16.584Z,11.85
2018-10-03T23:00:50.418Z,11.83
2018-10-03T23:03:24.014Z,11.78
2018-10-03T23:05:57.707Z,11.72
2018-10-03T23:08:32.011Z,11.66
2018-10-03T23:11:05.793Z,11.58
2018-10-03T23:13:39.394Z,11.53
2018-10-03T23:16:12.970Z,11.45
2018-10-03T23:18:46.594Z,11.40
2018-10-03T23:21:20.209Z,11.34
2018-10-03T23:23:53.859Z,11.28
2018-10-03T23:26:27.523Z,11.17
2018-10-03T23:29:01.106Z,11.09
2018-10-03T23:31:34.969Z,11.08
2018-10-03T23:34:08.655Z,11.05
2018-10-03T23:36:42.429Z,11.03
2018-10-03T23:39:16.081Z,11.04
2018-10-03T23:41:49.837Z,10.96
2018-10-03T23:44:23.309Z,10.90
2018-10-03T23:46:56.917Z,10.85
2018-10-03T23:49:32.563Z,10.81
2018-10-03T23:52:06.168Z,10.74
2018-10-03T23:54:39.769Z,10.67
2018-10-03T23:57:13.406Z,10.64
2018-10-03T23:59:47.063Z,10.61
